Terminal Aerodrome Forecast
Issued by NWS Mt. Holly, NJ

Home | Current Version | Previous Version | Text Only | Print | Product List | Glossary On
Versions: 1 2 3 4 5 6 7 8 9 10 11 12 13 14 15 16 17 18 19
000
FTUS41 KPHI 211832 AAA
TAFILG
TAF AMD
KILG 211832Z 2119/2218 16012KT P6SM FEW040
     FM212100 17008KT P6SM FEW040
     FM220200 18005KT P6SM SCT015 BKN040
     FM220800 VRB03KT 6SM BR BKN007 BKN250
     FM221300 20006KT P6SM BKN012 BKN250
     FM221500 20008KT P6SM SCT015 SCT050 BKN250=

USA.gov is the U.S. government's official web portal to all federal, state and local government web resources and services.